createdAt,value
2019-06-01T00:01:40.383Z,2.57
2019-06-01T00:04:08.984Z,2.50
2019-06-01T00:06:37.105Z,2.60
2019-06-01T00:09:06.455Z,2.60
2019-06-01T00:11:34.580Z,2.40
2019-06-01T00:14:04.466Z,2.80
2019-06-01T00:16:32.811Z,3.20
2019-06-01T00:19:01.938Z,3.50
2019-06-01T00:21:29.863Z,2.97
2019-06-01T00:23:57.920Z,3.53
2019-06-01T00:26:25.613Z,3.17
2019-06-01T00:28:53.454Z,3.53
2019-06-01T00:31:21.488Z,3.40
2019-06-01T00:33:49.883Z,3.90
2019-06-01T00:36:17.636Z,3.40
2019-06-01T00:38:45.753Z,3.10
2019-06-01T00:41:13.601Z,2.80
2019-06-01T00:43:42.096Z,2.60
2019-06-01T00:46:10.039Z,2.60
2019-06-01T00:48:37.995Z,2.90
2019-06-01T00:51:05.924Z,2.47
2019-06-01T00:53:34.813Z,2.80
2019-06-01T00:56:02.719Z,2.20
2019-06-01T00:58:30.762Z,2.73
2019-06-01T01:00:58.767Z,2.43
2019-06-01T01:03:26.951Z,2.60
2019-06-01T01:05:54.953Z,2.60
2019-06-01T01:08:22.643Z,2.63
2019-06-01T01:10:51.075Z,2.33
2019-06-01T01:13:21.410Z,2.50
2019-06-01T01:15:49.702Z,2.53
2019-06-01T01:18:17.696Z,2.60
2019-06-01T01:20:45.970Z,2.23
2019-06-01T01:23:14.334Z,2.73
2019-06-01T01:25:42.368Z,2.50
2019-06-01T01:28:10.485Z,2.60
2019-06-01T01:30:38.453Z,2.40
2019-06-01T01:33:06.789Z,2.33
2019-06-01T01:35:34.814Z,2.70
2019-06-01T01:38:02.810Z,2.70
2019-06-01T01:40:31.107Z,2.40
2019-06-01T01:42:59.386Z,2.33
2019-06-01T01:45:27.546Z,2.60
2019-06-01T01:47:55.555Z,2.70
2019-06-01T01:50:25.084Z,2.70
2019-06-01T01:52:53.254Z,2.73
2019-06-01T01:55:21.746Z,2.60
2019-06-01T01:57:50.933Z,2.60
2019-06-01T02:00:35.329Z,2.70
2019-06-01T02:03:03.501Z,2.53
2019-06-01T02:05:31.387Z,2.43
2019-06-01T02:08:00.108Z,2.40
2019-06-01T02:10:28.508Z,2.60
2019-06-01T02:12:57.549Z,2.47
2019-06-01T02:15:25.430Z,2.30
2019-06-01T02:17:53.966Z,2.60
2019-06-01T02:20:21.733Z,2.47
2019-06-01T02:22:49.972Z,2.67
2019-06-01T02:25:17.762Z,2.73
2019-06-01T02:27:45.971Z,2.73
2019-06-01T02:30:15.136Z,2.40
2019-06-01T02:32:43.396Z,2.20
2019-06-01T02:35:11.691Z,2.60
2019-06-01T02:37:39.776Z,2.47
2019-06-01T02:40:09.476Z,2.50
2019-06-01T02:42:37.505Z,1.90
2019-06-01T02:45:09.430Z,2.23
2019-06-01T02:47:37.353Z,2.30
2019-06-01T02:50:06.523Z,2.37
2019-06-01T02:52:34.813Z,2.50
2019-06-01T02:55:04.580Z,2.33
2019-06-01T02:57:32.738Z,2.23
2019-06-01T03:00:00.637Z,2.40
2019-06-01T03:02:28.702Z,2.30
2019-06-01T03:04:57.095Z,2.30
2019-06-01T03:07:26.546Z,2.50
2019-06-01T03:09:54.878Z,2.73
2019-06-01T03:12:23.423Z,2.97
2019-06-01T03:14:51.938Z,2.53
2019-06-01T03:17:22.886Z,2.77
2019-06-01T03:19:52.069Z,2.60
2019-06-01T03:22:21.507Z,2.60
2019-06-01T03:24:51.210Z,2.50
2019-06-01T03:27:21.388Z,2.70
2019-06-01T03:29:54.540Z,3.13
2019-06-01T03:32:35.391Z,3.13
2019-06-01T03:34:52.310Z,3.00
2019-06-01T03:37:20.429Z,3.03
2019-06-01T03:39:48.971Z,3.37
2019-06-01T03:42:17.202Z,3.20
2019-06-01T03:44:45.282Z,3.40
2019-06-01T03:47:13.277Z,2.80
2019-06-01T03:49:43.059Z,3.23
2019-06-01T03:52:11.125Z,3.10
2019-06-01T03:54:39.234Z,3.10
2019-06-01T03:57:07.323Z,2.80
2019-06-01T03:59:36.924Z,2.40
2019-06-01T04:02:05.130Z,2.50
2019-06-01T04:04:33.324Z,2.40
2019-06-01T04:07:01.353Z,2.77
2019-06-01T04:09:29.586Z,2.40
2019-06-01T04:11:57.800Z,2.80
2019-06-01T04:14:25.651Z,2.40
2019-06-01T04:16:53.187Z,2.30
2019-06-01T04:19:20.905Z,2.23
2019-06-01T04:21:48.461Z,2.30
2019-06-01T04:24:16.094Z,2.40
2019-06-01T04:26:43.688Z,2.40
2019-06-01T04:29:12.566Z,2.40
2019-06-01T04:31:40.513Z,2.40
2019-06-01T04:34:08.843Z,2.17
2019-06-01T04:36:37.960Z,2.03
2019-06-01T04:39:07.346Z,2.37
2019-06-01T04:41:35.653Z,2.23
2019-06-01T04:44:03.826Z,1.90
2019-06-01T04:46:32.103Z,2.20
2019-06-01T04:49:00.330Z,2.30
2019-06-01T04:51:28.310Z,2.20
2019-06-01T04:53:56.495Z,2.27
2019-06-01T04:56:24.507Z,1.80
2019-06-01T04:58:52.495Z,2.03
2019-06-01T05:01:20.578Z,2.00
2019-06-01T05:03:48.619Z,2.27
2019-06-01T05:06:16.774Z,2.40
2019-06-01T05:08:44.663Z,1.97
2019-06-01T05:11:13.577Z,2.00
2019-06-01T05:13:41.570Z,2.13
2019-06-01T05:16:10.034Z,1.97
2019-06-01T05:18:38.392Z,1.90
2019-06-01T05:21:06.433Z,2.03
2019-06-01T05:23:34.276Z,2.03
2019-06-01T05:26:02.002Z,2.43
2019-06-01T05:28:29.543Z,2.00
2019-06-01T05:30:57.227Z,2.10
2019-06-01T05:33:36.916Z,2.30
2019-06-01T05:35:54.397Z,2.00
2019-06-01T05:38:21.927Z,2.30
2019-06-01T05:40:49.593Z,2.20
2019-06-01T05:43:19.220Z,2.07
2019-06-01T05:45:46.719Z,2.03
2019-06-01T05:48:20.827Z,2.20
2019-06-01T05:50:43.927Z,2.07
2019-06-01T05:53:12.478Z,2.10
2019-06-01T05:55:40.316Z,2.00
2019-06-01T05:58:08.017Z,2.00
2019-06-01T06:00:38.266Z,1.87
2019-06-01T06:03:05.902Z,2.30
2019-06-01T06:05:33.586Z,2.20
2019-06-01T06:08:01.144Z,1.90
2019-06-01T06:10:28.836Z,2.00
2019-06-01T06:12:56.576Z,2.03
2019-06-01T06:15:25.355Z,2.20
2019-06-01T06:17:53.071Z,2.20
2019-06-01T06:20:20.757Z,2.00
2019-06-01T06:22:48.489Z,2.00
2019-06-01T06:25:16.164Z,2.37
2019-06-01T06:27:44.098Z,2.23
2019-06-01T06:30:12.822Z,2.00
2019-06-01T06:32:40.498Z,2.30
2019-06-01T06:35:08.258Z,2.00
2019-06-01T06:37:35.987Z,2.10
2019-06-01T06:40:04.371Z,2.07
2019-06-01T06:42:32.440Z,2.10
2019-06-01T06:45:03.527Z,2.30
2019-06-01T06:47:30.680Z,2.37
2019-06-01T06:49:58.411Z,1.80
2019-06-01T06:52:26.028Z,2.00
2019-06-01T06:54:53.711Z,2.30
2019-06-01T06:57:22.129Z,2.17
2019-06-01T06:59:50.075Z,2.30
2019-06-01T07:02:18.770Z,2.40
2019-06-01T07:04:47.003Z,2.70
2019-06-01T07:07:14.992Z,2.27
2019-06-01T07:09:42.672Z,1.93
2019-06-01T07:12:10.706Z,2.27
2019-06-01T07:14:38.773Z,2.10
2019-06-01T07:17:06.834Z,2.27
2019-06-01T07:19:35.868Z,2.20
2019-06-01T07:22:04.073Z,2.07
2019-06-01T07:24:32.297Z,2.60
2019-06-01T07:27:00.217Z,2.40
2019-06-01T07:29:28.439Z,2.23
2019-06-01T07:31:56.436Z,2.53
2019-06-01T07:34:34.532Z,2.30
2019-06-01T07:36:55.758Z,2.20
2019-06-01T07:39:24.865Z,2.60
2019-06-01T07:41:52.949Z,2.10
2019-06-01T07:44:21.189Z,2.67
2019-06-01T07:46:49.156Z,2.33
2019-06-01T07:49:17.035Z,2.60
2019-06-01T07:51:45.094Z,2.60
2019-06-01T07:54:13.102Z,2.67
2019-06-01T07:56:41.243Z,2.57
2019-06-01T07:59:09.259Z,2.30
2019-06-01T08:01:37.673Z,2.60
2019-06-01T08:04:05.414Z,2.37
2019-06-01T08:06:33.247Z,2.47
2019-06-01T08:09:01.106Z,2.60
2019-06-01T08:11:32.747Z,2.40
2019-06-01T08:14:00.035Z,2.90
2019-06-01T08:16:27.995Z,2.40
2019-06-01T08:18:55.652Z,2.90
2019-06-01T08:21:26.046Z,2.47
2019-06-01T08:23:53.706Z,2.43
2019-06-01T08:26:22.200Z,2.30
2019-06-01T08:28:50.033Z,2.70
2019-06-01T08:31:17.803Z,2.80
2019-06-01T08:33:45.411Z,2.50
2019-06-01T08:36:13.124Z,2.90
2019-06-01T08:38:40.848Z,2.50
2019-06-01T08:41:08.575Z,2.50
2019-06-01T08:43:36.226Z,2.40
2019-06-01T08:46:04.104Z,2.50
2019-06-01T08:48:32.003Z,2.63
2019-06-01T08:51:00.170Z,2.77
2019-06-01T08:53:28.227Z,2.30
2019-06-01T08:55:55.938Z,2.70
2019-06-01T08:58:24.165Z,2.50
2019-06-01T09:00:52.207Z,2.70
2019-06-01T09:03:20.302Z,2.67
2019-06-01T09:05:48.283Z,2.53
2019-06-01T09:08:15.990Z,2.80
2019-06-01T09:10:43.568Z,2.40
2019-06-01T09:13:11.256Z,2.43
2019-06-01T09:15:38.877Z,2.80
2019-06-01T09:18:06.496Z,2.70
2019-06-01T09:20:37.508Z,2.77
2019-06-01T09:23:03.783Z,2.63
2019-06-01T09:25:31.761Z,2.53
2019-06-01T09:27:59.409Z,2.30
2019-06-01T09:30:27.978Z,2.50
2019-06-01T09:32:55.844Z,2.52
2019-06-01T09:35:40.717Z,2.27
2019-06-01T09:37:53.970Z,2.55
2019-06-01T09:40:22.112Z,2.47
2019-06-01T09:42:50.220Z,2.40
2019-06-01T09:45:18.469Z,2.70
2019-06-01T09:47:46.582Z,2.70
2019-06-01T09:50:14.490Z,2.25
2019-06-01T09:52:42.128Z,2.50
2019-06-01T09:55:10.137Z,2.10
2019-06-01T09:57:38.367Z,2.15
2019-06-01T10:00:07.319Z,2.33
2019-06-01T10:02:36.185Z,2.55
2019-06-01T10:05:05.478Z,2.50
2019-06-01T10:07:33.061Z,2.27
2019-06-01T10:10:01.217Z,2.47
2019-06-01T10:12:29.853Z,2.67
2019-06-01T10:14:58.012Z,2.50
2019-06-01T10:17:25.634Z,2.60
2019-06-01T10:19:53.369Z,2.20
2019-06-01T10:22:21.363Z,2.25
2019-06-01T10:24:49.347Z,2.15
2019-06-01T10:27:17.255Z,2.30
2019-06-01T10:29:45.381Z,2.20
2019-06-01T10:32:13.713Z,2.40
2019-06-01T10:34:42.105Z,2.08
2019-06-01T10:37:09.764Z,2.40
2019-06-01T10:39:37.420Z,2.40
2019-06-01T10:42:05.007Z,2.12
2019-06-01T10:44:37.907Z,2.17
2019-06-01T10:47:02.290Z,2.40
2019-06-01T10:49:29.955Z,2.20
2019-06-01T10:51:57.708Z,2.50
2019-06-01T10:54:25.687Z,2.80
2019-06-01T10:56:53.837Z,2.45
2019-06-01T10:59:21.925Z,2.20
2019-06-01T11:01:49.997Z,2.60
2019-06-01T11:04:18.284Z,2.10
2019-06-01T11:06:48.765Z,2.40
2019-06-01T11:09:16.592Z,2.30
2019-06-01T11:11:44.231Z,2.40
2019-06-01T11:14:11.902Z,2.17
2019-06-01T11:16:41.714Z,2.50
2019-06-01T11:19:09.781Z,2.10
2019-06-01T11:21:37.520Z,2.00
2019-06-01T11:24:05.182Z,2.25
2019-06-01T11:26:33.351Z,2.20
2019-06-01T11:29:01.384Z,3.10
2019-06-01T11:31:29.470Z,2.00
2019-06-01T11:33:57.446Z,2.40
2019-06-01T11:36:25.682Z,2.20
2019-06-01T11:38:53.730Z,2.05
2019-06-01T11:41:21.821Z,2.12
2019-06-01T11:43:49.970Z,2.30
2019-06-01T11:46:18.300Z,2.60
2019-06-01T11:48:47.324Z,3.33
2019-06-01T11:51:15.356Z,2.60
2019-06-01T11:53:43.569Z,2.00
2019-06-01T11:56:11.664Z,2.27
2019-06-01T11:58:39.857Z,2.62
2019-06-01T12:01:07.959Z,2.00
2019-06-01T12:03:36.021Z,2.15
2019-06-01T12:06:04.413Z,2.40
2019-06-01T12:08:34.175Z,2.10
2019-06-01T12:11:02.486Z,2.10
2019-06-01T12:13:30.455Z,2.15
2019-06-01T12:15:58.740Z,2.72
2019-06-01T12:18:27.256Z,2.20
2019-06-01T12:20:54.902Z,2.05
2019-06-01T12:23:22.498Z,2.30
2019-06-01T12:25:50.213Z,2.30
2019-06-01T12:28:17.807Z,2.15
2019-06-01T12:30:45.817Z,2.80
2019-06-01T12:33:13.803Z,2.40
2019-06-01T12:35:42.013Z,2.33
2019-06-01T12:38:09.999Z,2.25
2019-06-01T12:40:37.656Z,2.30
2019-06-01T12:43:05.420Z,2.00
2019-06-01T12:45:33.005Z,2.00
2019-06-01T12:48:00.824Z,1.82
2019-06-01T12:50:28.442Z,2.22
2019-06-01T12:52:56.171Z,2.02
2019-06-01T12:55:23.778Z,2.00
2019-06-01T12:57:51.726Z,1.92
2019-06-01T13:00:20.641Z,1.87
2019-06-01T13:02:59.269Z,2.00
2019-06-01T13:05:19.104Z,1.98
2019-06-01T13:07:57.540Z,2.12
2019-06-01T13:10:17.103Z,1.92
2019-06-01T13:12:45.236Z,2.10
2019-06-01T13:15:15.574Z,2.10
2019-06-01T13:17:45.155Z,2.10
2019-06-01T13:20:14.020Z,2.47
2019-06-01T13:22:41.909Z,2.17
2019-06-01T13:25:09.964Z,2.37
2019-06-01T13:27:40.806Z,2.40
2019-06-01T13:30:10.388Z,2.33
2019-06-01T13:32:38.349Z,2.40
2019-06-01T13:35:06.727Z,2.20
2019-06-01T13:37:34.477Z,2.12
2019-06-01T13:40:02.130Z,2.37
2019-06-01T13:42:29.951Z,2.40
2019-06-01T13:44:57.512Z,2.12
2019-06-01T13:47:25.183Z,2.10
2019-06-01T13:49:54.184Z,2.30
2019-06-01T13:52:22.288Z,2.12
2019-06-01T13:54:50.623Z,2.20
2019-06-01T13:57:18.755Z,2.05
2019-06-01T13:59:46.989Z,2.30
2019-06-01T14:02:14.634Z,2.10
2019-06-01T14:04:42.155Z,2.10
2019-06-01T14:07:09.798Z,2.77
2019-06-01T14:09:37.396Z,2.20
2019-06-01T14:12:05.100Z,2.30
2019-06-01T14:14:32.684Z,2.17
2019-06-01T14:17:00.324Z,2.60
2019-06-01T14:19:27.927Z,1.98
2019-06-01T14:21:55.967Z,2.10
2019-06-01T14:24:23.641Z,2.03
2019-06-01T14:26:52.329Z,2.20
2019-06-01T14:29:20.258Z,2.15
2019-06-01T14:31:48.500Z,2.10
2019-06-01T14:34:17.352Z,2.37
2019-06-01T14:36:46.310Z,2.30
2019-06-01T14:39:14.344Z,2.27
2019-06-01T14:41:42.289Z,2.50
2019-06-01T14:44:10.241Z,2.40
2019-06-01T14:46:52.954Z,2.43
2019-06-01T14:49:08.298Z,2.50
2019-06-01T14:51:36.247Z,2.50
2019-06-01T14:54:04.543Z,2.50
2019-06-01T14:56:32.445Z,2.70
2019-06-01T14:59:02.195Z,3.40
2019-06-01T15:01:32.866Z,4.17
2019-06-01T15:04:01.203Z,2.52
2019-06-01T15:06:29.108Z,2.50
2019-06-01T15:09:15.797Z,2.50
2019-06-01T15:11:27.174Z,2.20
2019-06-01T15:13:54.940Z,2.30
2019-06-01T15:16:22.656Z,2.42
2019-06-01T15:18:51.505Z,2.23
2019-06-01T15:21:19.341Z,2.70
2019-06-01T15:23:49.814Z,2.43
2019-06-01T15:26:17.579Z,2.57
2019-06-01T15:28:45.340Z,2.30
2019-06-01T15:31:13.036Z,2.47
2019-06-01T15:33:40.736Z,2.43
2019-06-01T15:36:08.348Z,2.47
2019-06-01T15:38:36.129Z,2.80
2019-06-01T15:41:03.892Z,3.20
2019-06-01T15:43:31.498Z,3.13
2019-06-01T15:45:59.850Z,3.30
2019-06-01T15:48:27.587Z,2.50
2019-06-01T15:51:00.609Z,2.60
2019-06-01T15:53:25.683Z,2.43
2019-06-01T15:55:54.314Z,2.67
2019-06-01T15:58:22.089Z,2.50
2019-06-01T16:00:49.746Z,2.63
2019-06-01T16:03:18.371Z,2.40
2019-06-01T16:05:46.198Z,2.60
2019-06-01T16:08:14.015Z,2.60
2019-06-01T16:10:41.916Z,2.60
2019-06-01T16:13:09.537Z,2.30
2019-06-01T16:15:37.476Z,2.60
2019-06-01T16:18:05.532Z,2.50
2019-06-01T16:20:33.493Z,9.13
2019-06-01T16:23:02.507Z,8.07
2019-06-01T16:25:30.335Z,13.53
2019-06-01T16:27:58.703Z,3.93
2019-06-01T16:30:26.474Z,2.60
2019-06-01T16:32:54.436Z,2.50
2019-06-01T16:35:22.277Z,2.50
2019-06-01T16:37:49.853Z,2.77
2019-06-01T16:40:17.537Z,2.50
2019-06-01T16:42:45.736Z,2.70
2019-06-01T16:45:14.391Z,5.17
2019-06-01T16:47:42.604Z,4.77
2019-06-01T16:50:11.937Z,4.30
2019-06-01T16:52:39.645Z,3.30
2019-06-01T16:55:08.559Z,3.63
2019-06-01T16:57:36.879Z,2.80
2019-06-01T17:00:07.037Z,3.07
2019-06-01T17:02:35.498Z,2.70
2019-06-01T17:05:03.345Z,2.50
2019-06-01T17:07:30.957Z,2.83
2019-06-01T17:10:03.447Z,3.00
2019-06-01T17:12:28.109Z,2.80
2019-06-01T17:14:56.790Z,2.77
2019-06-01T17:17:24.637Z,2.63
2019-06-01T17:19:52.321Z,3.00
2019-06-01T17:22:20.053Z,2.80
2019-06-01T17:24:47.598Z,2.70
2019-06-01T17:27:15.344Z,2.70
2019-06-01T17:29:42.912Z,2.80
2019-06-01T17:32:23.100Z,2.73
2019-06-01T17:34:40.175Z,2.60
2019-06-01T17:37:08.952Z,3.60
2019-06-01T17:39:36.752Z,3.40
2019-06-01T17:42:04.518Z,3.87
2019-06-01T17:44:32.162Z,4.00
2019-06-01T17:46:59.999Z,3.87
2019-06-01T17:49:27.662Z,3.83
2019-06-01T17:51:55.393Z,3.23
2019-06-01T17:54:22.980Z,2.70
2019-06-01T17:56:50.684Z,2.93
2019-06-01T17:59:18.275Z,3.40
2019-06-01T18:01:46.662Z,3.60
2019-06-01T18:04:14.273Z,3.17
2019-06-01T18:06:41.885Z,5.40
2019-06-01T18:09:10.284Z,3.33
2019-06-01T18:11:38.080Z,3.30
2019-06-01T18:14:08.231Z,3.17
2019-06-01T18:16:36.161Z,3.53
2019-06-01T18:19:04.171Z,3.20
2019-06-01T18:21:33.496Z,3.00
2019-06-01T18:24:04.557Z,3.00
2019-06-01T18:26:32.566Z,3.20
2019-06-01T18:29:00.540Z,3.20
2019-06-01T18:31:28.753Z,3.07
2019-06-01T18:33:56.753Z,3.10
2019-06-01T18:36:24.789Z,2.80
2019-06-01T18:38:53.130Z,3.13
2019-06-01T18:41:21.005Z,3.00
2019-06-01T18:43:49.087Z,2.90
2019-06-01T18:46:17.392Z,2.80
2019-06-01T18:48:45.463Z,2.93
2019-06-01T18:51:14.467Z,3.13
2019-06-01T18:53:42.792Z,3.37
2019-06-01T18:56:10.752Z,3.33
2019-06-01T18:58:38.381Z,3.87
2019-06-01T19:01:06.475Z,4.03
2019-06-01T19:03:34.511Z,3.90
2019-06-01T19:06:02.414Z,3.40
2019-06-01T19:08:30.078Z,3.70
2019-06-01T19:10:58.110Z,3.70
2019-06-01T19:13:26.007Z,3.60
2019-06-01T19:15:53.909Z,4.10
2019-06-01T19:18:21.699Z,4.07
2019-06-01T19:20:49.255Z,3.83
2019-06-01T19:23:21.724Z,3.87
2019-06-01T19:25:46.358Z,3.83
2019-06-01T19:28:15.275Z,4.00
2019-06-01T19:30:44.054Z,4.03
2019-06-01T19:33:14.282Z,3.53
2019-06-01T19:35:41.235Z,3.93
2019-06-01T19:38:09.148Z,4.00
2019-06-01T19:40:38.124Z,4.10
2019-06-01T19:43:07.342Z,3.90
2019-06-01T19:45:36.372Z,4.07
2019-06-01T19:48:06.057Z,3.13
2019-06-01T19:50:33.801Z,3.60
2019-06-01T19:53:02.804Z,3.60
2019-06-01T19:55:30.554Z,3.70
2019-06-01T19:57:59.925Z,3.87
2019-06-01T20:00:28.919Z,3.60
2019-06-01T20:02:56.551Z,3.10
2019-06-01T20:05:24.303Z,3.90
2019-06-01T20:07:51.904Z,3.40
2019-06-01T20:10:19.452Z,3.50
2019-06-01T20:12:47.228Z,3.60
2019-06-01T20:15:15.550Z,3.40
2019-06-01T20:17:43.333Z,3.20
2019-06-01T20:20:11.228Z,3.57
2019-06-01T20:22:38.863Z,3.40
2019-06-01T20:25:06.865Z,3.33
2019-06-01T20:27:34.567Z,3.20
2019-06-01T20:30:02.311Z,3.30
2019-06-01T20:32:30.364Z,3.53
2019-06-01T20:34:57.959Z,3.40
2019-06-01T20:37:25.617Z,3.50
2019-06-01T20:39:53.211Z,3.07
2019-06-01T20:42:31.362Z,3.40
2019-06-01T20:44:50.689Z,3.40
2019-06-01T20:47:18.922Z,3.17
2019-06-01T20:49:47.604Z,3.70
2019-06-01T20:52:16.786Z,3.20
2019-06-01T20:54:44.752Z,3.60
2019-06-01T20:57:13.312Z,3.67
2019-06-01T20:59:40.973Z,4.03
2019-06-01T21:02:08.560Z,3.77
2019-06-01T21:04:36.349Z,3.67
2019-06-01T21:07:04.089Z,3.63
2019-06-01T21:09:31.755Z,3.60
2019-06-01T21:11:59.525Z,4.17
2019-06-01T21:14:27.141Z,3.90
2019-06-01T21:16:54.743Z,3.53
2019-06-01T21:19:22.524Z,3.93
2019-06-01T21:21:50.458Z,3.63
2019-06-01T21:24:18.794Z,3.60
2019-06-01T21:26:46.834Z,3.87
2019-06-01T21:29:14.684Z,3.57
2019-06-01T21:31:42.449Z,3.70
2019-06-01T21:34:10.584Z,3.70
2019-06-01T21:36:41.563Z,3.60
2019-06-01T21:39:08.003Z,5.17
2019-06-01T21:41:35.862Z,5.30
2019-06-01T21:44:03.694Z,6.90
2019-06-01T21:46:31.369Z,6.23
2019-06-01T21:48:58.997Z,6.33
2019-06-01T21:51:26.685Z,6.43
2019-06-01T21:53:54.314Z,6.13
2019-06-01T21:56:23.714Z,6.50
2019-06-01T21:58:51.510Z,6.47
2019-06-01T22:01:19.146Z,6.77
2019-06-01T22:03:46.717Z,6.13
2019-06-01T22:06:14.343Z,6.80
2019-06-01T22:08:51.073Z,7.40
2019-06-01T22:11:11.454Z,6.07
2019-06-01T22:13:39.004Z,5.63
2019-06-01T22:16:06.978Z,6.33
2019-06-01T22:18:34.987Z,5.97
2019-06-01T22:21:02.704Z,6.37
2019-06-01T22:23:30.455Z,6.37
2019-06-01T22:25:58.160Z,6.60
2019-06-01T22:28:26.361Z,6.10
2019-06-01T22:30:54.122Z,6.20
2019-06-01T22:33:23.010Z,6.30
2019-06-01T22:35:50.824Z,6.07
2019-06-01T22:38:19.606Z,6.80
2019-06-01T22:40:47.445Z,6.33
2019-06-01T22:43:15.184Z,6.27
2019-06-01T22:45:42.879Z,5.97
2019-06-01T22:48:10.669Z,6.17
2019-06-01T22:50:38.529Z,6.20
2019-06-01T22:53:06.154Z,6.50
2019-06-01T22:55:33.955Z,7.07
2019-06-01T22:58:01.636Z,6.47
2019-06-01T23:00:29.866Z,6.20
2019-06-01T23:02:57.701Z,6.43
2019-06-01T23:05:25.277Z,6.47
2019-06-01T23:07:52.968Z,6.30
2019-06-01T23:10:27.434Z,6.70
2019-06-01T23:12:50.063Z,6.60
2019-06-01T23:15:17.628Z,6.57
2019-06-01T23:17:45.287Z,6.10
2019-06-01T23:20:12.914Z,6.83
2019-06-01T23:22:40.570Z,7.00
2019-06-01T23:25:08.234Z,6.57
2019-06-01T23:27:35.896Z,7.00
2019-06-01T23:30:04.142Z,6.37
2019-06-01T23:32:32.705Z,7.50
2019-06-01T23:35:00.479Z,6.53
2019-06-01T23:37:28.831Z,6.87
2019-06-01T23:39:56.700Z,6.93
2019-06-01T23:42:24.606Z,6.67
2019-06-01T23:44:52.351Z,6.60
2019-06-01T23:47:19.909Z,6.10
2019-06-01T23:49:47.610Z,6.53
2019-06-01T23:52:15.231Z,6.57
2019-06-01T23:54:43.733Z,6.47
2019-06-01T23:57:11.346Z,6.50
2019-06-01T23:59:38.978Z,6.83
